sensor_id;sensor_type;location;lat;lon;timestamp;temperature;humidity
7654;DHT22;3869;48.406;10.774;2022-11-20T00:01:05;6.00;99.90
7654;DHT22;3869;48.406;10.774;2022-11-20T00:03:33;6.00;99.90
7654;DHT22;3869;48.406;10.774;2022-11-20T00:06:01;5.90;99.90
7654;DHT22;3869;48.406;10.774;2022-11-20T00:08:29;5.90;99.90
7654;DHT22;3869;48.406;10.774;2022-11-20T00:11:01;5.80;99.90
7654;DHT22;3869;48.406;10.774;2022-11-20T00:13:31;5.80;99.90
7654;DHT22;3869;48.406;10.774;2022-11-20T00:15:59;5.80;99.90
7654;DHT22;3869;48.406;10.774;2022-11-20T00:18:28;5.80;99.90
7654;DHT22;3869;48.406;10.774;2022-11-20T00:21:01;5.80;99.90
7654;DHT22;3869;48.406;10.774;2022-11-20T00:23:29;5.80;99.90
7654;DHT22;3869;48.406;10.774;2022-11-20T00:26:01;5.80;99.90
7654;DHT22;3869;48.406;10.774;2022-11-20T00:28:31;5.80;99.90
7654;DHT22;3869;48.406;10.774;2022-11-20T00:31:03;5.70;99.90
7654;DHT22;3869;48.406;10.774;2022-11-20T00:33:32;5.80;99.90
7654;DHT22;3869;48.406;10.774;2022-11-20T00:36:01;5.70;99.90
7654;DHT22;3869;48.406;10.774;2022-11-20T00:38:30;5.70;99.90
7654;DHT22;3869;48.406;10.774;2022-11-20T00:41:02;5.70;99.90
7654;DHT22;3869;48.406;10.774;2022-11-20T00:43:32;5.70;99.90
7654;DHT22;3869;48.406;10.774;2022-11-20T00:46:01;5.70;99.90
7654;DHT22;3869;48.406;10.774;2022-11-20T00:48:30;5.80;99.90
7654;DHT22;3869;48.406;10.774;2022-11-20T00:50:58;5.70;99.90
7654;DHT22;3869;48.406;10.774;2022-11-20T00:53:26;5.70;99.90
7654;DHT22;3869;48.406;10.774;2022-11-20T00:55:55;5.70;99.90
7654;DHT22;3869;48.406;10.774;2022-11-20T00:58:24;5.70;99.90
7654;DHT22;3869;48.406;10.774;2022-11-20T01:01:00;5.70;99.90
7654;DHT22;3869;48.406;10.774;2022-11-20T01:03:30;5.60;99.90
7654;DHT22;3869;48.406;10.774;2022-11-20T01:06:02;5.60;99.90
7654;DHT22;3869;48.406;10.774;2022-11-20T01:08:31;5.60;99.90
7654;DHT22;3869;48.406;10.774;2022-11-20T01:11:00;5.60;99.90
7654;DHT22;3869;48.406;10.774;2022-11-20T01:13:29;5.60;99.90
7654;DHT22;3869;48.406;10.774;2022-11-20T01:16:11;5.60;99.90
7654;DHT22;3869;48.406;10.774;2022-11-20T01:18:41;5.60;99.90
7654;DHT22;3869;48.406;10.774;2022-11-20T01:21:11;5.70;99.90
7654;DHT22;3869;48.406;10.774;2022-11-20T01:23:41;5.70;99.90
7654;DHT22;3869;48.406;10.774;2022-11-20T01:26:11;5.60;99.90
7654;DHT22;3869;48.406;10.774;2022-11-20T01:28:40;5.60;99.90
7654;DHT22;3869;48.406;10.774;2022-11-20T01:31:15;5.60;99.90
7654;DHT22;3869;48.406;10.774;2022-11-20T01:33:44;5.60;99.90
7654;DHT22;3869;48.406;10.774;2022-11-20T01:36:13;5.50;99.90
7654;DHT22;3869;48.406;10.774;2022-11-20T01:38:41;5.50;99.90
7654;DHT22;3869;48.406;10.774;2022-11-20T01:41:10;5.40;99.90
7654;DHT22;3869;48.406;10.774;2022-11-20T01:43:58;5.30;99.90
7654;DHT22;3869;48.406;10.774;2022-11-20T01:46:27;5.30;99.90
7654;DHT22;3869;48.406;10.774;2022-11-20T01:48:58;5.30;99.90
7654;DHT22;3869;48.406;10.774;2022-11-20T01:51:31;5.30;99.90
7654;DHT22;3869;48.406;10.774;2022-11-20T01:54:04;5.20;99.90
7654;DHT22;3869;48.406;10.774;2022-11-20T01:56:38;5.20;99.90
7654;DHT22;3869;48.406;10.774;2022-11-20T01:59:08;5.20;99.90
7654;DHT22;3869;48.406;10.774;2022-11-20T02:01:39;5.20;99.90
7654;DHT22;3869;48.406;10.774;2022-11-20T02:04:08;5.10;99.90
7654;DHT22;3869;48.406;10.774;2022-11-20T02:06:41;5.10;99.90
7654;DHT22;3869;48.406;10.774;2022-11-20T02:09:10;5.10;99.90
7654;DHT22;3869;48.406;10.774;2022-11-20T02:11:38;5.20;99.90
7654;DHT22;3869;48.406;10.774;2022-11-20T02:14:06;5.20;99.90
7654;DHT22;3869;48.406;10.774;2022-11-20T02:16:37;5.10;99.90
7654;DHT22;3869;48.406;10.774;2022-11-20T02:19:19;5.10;99.90
7654;DHT22;3869;48.406;10.774;2022-11-20T02:21:54;5.10;99.90
7654;DHT22;3869;48.406;10.774;2022-11-20T02:24:25;5.00;99.90
7654;DHT22;3869;48.406;10.774;2022-11-20T02:26:55;5.00;99.90
7654;DHT22;3869;48.406;10.774;2022-11-20T02:29:26;5.00;99.90
7654;DHT22;3869;48.406;10.774;2022-11-20T02:31:56;4.90;99.90
7654;DHT22;3869;48.406;10.774;2022-11-20T02:34:25;4.90;99.90
7654;DHT22;3869;48.406;10.774;2022-11-20T02:36:53;4.90;99.90
7654;DHT22;3869;48.406;10.774;2022-11-20T02:39:25;4.90;99.90
7654;DHT22;3869;48.406;10.774;2022-11-20T02:41:56;4.90;99.90
7654;DHT22;3869;48.406;10.774;2022-11-20T02:44:24;4.90;99.90
7654;DHT22;3869;48.406;10.774;2022-11-20T02:46:52;4.90;99.90
7654;DHT22;3869;48.406;10.774;2022-11-20T02:49:20;4.90;99.90
7654;DHT22;3869;48.406;10.774;2022-11-20T02:51:54;4.90;99.90
7654;DHT22;3869;48.406;10.774;2022-11-20T02:54:22;4.80;99.90
7654;DHT22;3869;48.406;10.774;2022-11-20T02:56:51;4.80;99.90
7654;DHT22;3869;48.406;10.774;2022-11-20T02:59:19;4.80;99.90
7654;DHT22;3869;48.406;10.774;2022-11-20T03:01:48;4.80;99.90
7654;DHT22;3869;48.406;10.774;2022-11-20T03:04:16;4.90;99.90
7654;DHT22;3869;48.406;10.774;2022-11-20T03:06:44;4.90;99.90
7654;DHT22;3869;48.406;10.774;2022-11-20T03:09:12;4.90;99.90
7654;DHT22;3869;48.406;10.774;2022-11-20T03:11:40;4.90;99.90
7654;DHT22;3869;48.406;10.774;2022-11-20T03:14:10;4.90;99.90
7654;DHT22;3869;48.406;10.774;2022-11-20T03:16:38;4.90;99.90
7654;DHT22;3869;48.406;10.774;2022-11-20T03:19:06;4.90;99.90
7654;DHT22;3869;48.406;10.774;2022-11-20T03:21:34;5.00;99.90
7654;DHT22;3869;48.406;10.774;2022-11-20T03:24:03;4.90;99.90
7654;DHT22;3869;48.406;10.774;2022-11-20T03:26:31;5.00;99.90
7654;DHT22;3869;48.406;10.774;2022-11-20T03:28:59;5.00;99.90
7654;DHT22;3869;48.406;10.774;2022-11-20T03:31:30;5.00;99.90
7654;DHT22;3869;48.406;10.774;2022-11-20T03:33:59;5.00;99.90
7654;DHT22;3869;48.406;10.774;2022-11-20T03:36:28;5.10;99.90
7654;DHT22;3869;48.406;10.774;2022-11-20T03:38:57;5.10;99.90
7654;DHT22;3869;48.406;10.774;2022-11-20T03:41:27;5.10;99.90
7654;DHT22;3869;48.406;10.774;2022-11-20T03:43:56;5.10;99.90
7654;DHT22;3869;48.406;10.774;2022-11-20T03:46:25;5.10;99.90
7654;DHT22;3869;48.406;10.774;2022-11-20T03:48:54;5.10;99.90
7654;DHT22;3869;48.406;10.774;2022-11-20T03:51:24;5.10;99.90
7654;DHT22;3869;48.406;10.774;2022-11-20T03:53:56;5.10;99.90
7654;DHT22;3869;48.406;10.774;2022-11-20T03:56:26;5.10;99.90
7654;DHT22;3869;48.406;10.774;2022-11-20T03:58:55;5.00;99.90
7654;DHT22;3869;48.406;10.774;2022-11-20T04:01:24;5.00;99.90
7654;DHT22;3869;48.406;10.774;2022-11-20T04:03:55;5.00;99.90
7654;DHT22;3869;48.406;10.774;2022-11-20T04:06:25;5.00;99.90
7654;DHT22;3869;48.406;10.774;2022-11-20T04:08:54;5.00;99.90
7654;DHT22;3869;48.406;10.774;2022-11-20T04:11:24;5.00;99.90
7654;DHT22;3869;48.406;10.774;2022-11-20T04:13:54;4.90;99.90
7654;DHT22;3869;48.406;10.774;2022-11-20T04:16:23;4.90;99.90
7654;DHT22;3869;48.406;10.774;2022-11-20T04:18:54;4.90;99.90
7654;DHT22;3869;48.406;10.774;2022-11-20T04:21:22;4.90;99.90
7654;DHT22;3869;48.406;10.774;2022-11-20T04:23:51;4.90;99.90
7654;DHT22;3869;48.406;10.774;2022-11-20T04:26:20;4.90;99.90
7654;DHT22;3869;48.406;10.774;2022-11-20T04:28:49;4.90;99.90
7654;DHT22;3869;48.406;10.774;2022-11-20T04:31:18;4.90;99.90
7654;DHT22;3869;48.406;10.774;2022-11-20T04:33:46;4.90;99.90
7654;DHT22;3869;48.406;10.774;2022-11-20T04:36:17;4.90;99.90
7654;DHT22;3869;48.406;10.774;2022-11-20T04:38:45;4.90;99.90
7654;DHT22;3869;48.406;10.774;2022-11-20T04:41:24;4.90;99.90
7654;DHT22;3869;48.406;10.774;2022-11-20T04:43:53;4.90;99.90
7654;DHT22;3869;48.406;10.774;2022-11-20T04:46:26;4.90;99.90
7654;DHT22;3869;48.406;10.774;2022-11-20T04:48:55;4.80;99.90
7654;DHT22;3869;48.406;10.774;2022-11-20T04:51:24;4.80;99.90
7654;DHT22;3869;48.406;10.774;2022-11-20T04:53:53;4.70;99.90
7654;DHT22;3869;48.406;10.774;2022-11-20T04:56:21;4.70;99.90
7654;DHT22;3869;48.406;10.774;2022-11-20T04:58:50;4.70;99.90
7654;DHT22;3869;48.406;10.774;2022-11-20T05:01:19;4.60;99.90
7654;DHT22;3869;48.406;10.774;2022-11-20T05:03:48;4.60;99.90
7654;DHT22;3869;48.406;10.774;2022-11-20T05:06:17;4.60;99.90
7654;DHT22;3869;48.406;10.774;2022-11-20T05:08:47;4.60;99.90
7654;DHT22;3869;48.406;10.774;2022-11-20T05:11:18;4.60;99.90
7654;DHT22;3869;48.406;10.774;2022-11-20T05:13:46;4.60;99.90
7654;DHT22;3869;48.406;10.774;2022-11-20T05:16:16;4.60;99.90
7654;DHT22;3869;48.406;10.774;2022-11-20T05:18:45;4.60;99.90
7654;DHT22;3869;48.406;10.774;2022-11-20T05:21:14;4.60;99.90
7654;DHT22;3869;48.406;10.774;2022-11-20T05:23:42;4.60;99.90
7654;DHT22;3869;48.406;10.774;2022-11-20T05:26:15;4.60;99.90
7654;DHT22;3869;48.406;10.774;2022-11-20T05:28:44;4.50;99.90
7654;DHT22;3869;48.406;10.774;2022-11-20T05:31:14;4.50;99.90
7654;DHT22;3869;48.406;10.774;2022-11-20T05:33:49;4.50;99.90
7654;DHT22;3869;48.406;10.774;2022-11-20T05:36:17;4.50;99.90
7654;DHT22;3869;48.406;10.774;2022-11-20T05:38:45;4.50;99.90
7654;DHT22;3869;48.406;10.774;2022-11-20T05:41:19;4.40;99.90
7654;DHT22;3869;48.406;10.774;2022-11-20T05:43:48;4.40;99.90
7654;DHT22;3869;48.406;10.774;2022-11-20T05:46:18;4.40;99.90
7654;DHT22;3869;48.406;10.774;2022-11-20T05:48:53;4.40;99.90
7654;DHT22;3869;48.406;10.774;2022-11-20T05:51:21;4.30;99.90
7654;DHT22;3869;48.406;10.774;2022-11-20T05:53:49;4.30;99.90
7654;DHT22;3869;48.406;10.774;2022-11-20T05:56:20;4.30;99.90
7654;DHT22;3869;48.406;10.774;2022-11-20T05:58:49;4.30;99.90
7654;DHT22;3869;48.406;10.774;2022-11-20T06:01:18;4.30;99.90
7654;DHT22;3869;48.406;10.774;2022-11-20T06:03:47;4.30;99.90
7654;DHT22;3869;48.406;10.774;2022-11-20T06:06:17;4.30;99.90
7654;DHT22;3869;48.406;10.774;2022-11-20T06:08:45;4.40;99.90
7654;DHT22;3869;48.406;10.774;2022-11-20T06:11:14;4.40;99.90
7654;DHT22;3869;48.406;10.774;2022-11-20T06:13:44;4.40;99.90
7654;DHT22;3869;48.406;10.774;2022-11-20T06:16:14;4.40;99.90
7654;DHT22;3869;48.406;10.774;2022-11-20T06:18:43;4.40;99.90
7654;DHT22;3869;48.406;10.774;2022-11-20T06:21:13;4.40;99.90
7654;DHT22;3869;48.406;10.774;2022-11-20T06:23:41;4.40;99.90
7654;DHT22;3869;48.406;10.774;2022-11-20T06:26:13;4.50;99.90
7654;DHT22;3869;48.406;10.774;2022-11-20T06:28:43;4.50;99.90
7654;DHT22;3869;48.406;10.774;2022-11-20T06:31:13;4.50;99.90
7654;DHT22;3869;48.406;10.774;2022-11-20T06:33:42;4.50;99.90
7654;DHT22;3869;48.406;10.774;2022-11-20T06:36:11;4.60;99.90
7654;DHT22;3869;48.406;10.774;2022-11-20T06:38:39;4.60;99.90
7654;DHT22;3869;48.406;10.774;2022-11-20T06:41:11;4.70;99.90
7654;DHT22;3869;48.406;10.774;2022-11-20T06:43:39;4.70;99.90
7654;DHT22;3869;48.406;10.774;2022-11-20T06:46:10;4.80;99.90
7654;DHT22;3869;48.406;10.774;2022-11-20T06:48:38;4.80;99.90
7654;DHT22;3869;48.406;10.774;2022-11-20T06:51:07;4.80;99.90
7654;DHT22;3869;48.406;10.774;2022-11-20T06:53:36;4.80;99.90
7654;DHT22;3869;48.406;10.774;2022-11-20T06:56:05;4.90;99.90
7654;DHT22;3869;48.406;10.774;2022-11-20T06:58:35;4.90;99.90
7654;DHT22;3869;48.406;10.774;2022-11-20T07:01:04;5.00;99.90
7654;DHT22;3869;48.406;10.774;2022-11-20T07:03:35;5.00;99.90
7654;DHT22;3869;48.406;10.774;2022-11-20T07:06:05;5.10;99.90
7654;DHT22;3869;48.406;10.774;2022-11-20T07:08:33;5.10;99.90
7654;DHT22;3869;48.406;10.774;2022-11-20T07:11:03;5.10;99.90
7654;DHT22;3869;48.406;10.774;2022-11-20T07:13:32;5.20;99.90
7654;DHT22;3869;48.406;10.774;2022-11-20T07:16:00;5.20;99.90
7654;DHT22;3869;48.406;10.774;2022-11-20T07:18:29;5.30;99.90
7654;DHT22;3869;48.406;10.774;2022-11-20T07:21:01;5.30;99.90
7654;DHT22;3869;48.406;10.774;2022-11-20T07:23:29;5.40;99.90
7654;DHT22;3869;48.406;10.774;2022-11-20T07:25:57;5.40;99.90
7654;DHT22;3869;48.406;10.774;2022-11-20T07:28:25;5.40;99.90
7654;DHT22;3869;48.406;10.774;2022-11-20T07:30:53;5.50;99.90
7654;DHT22;3869;48.406;10.774;2022-11-20T07:33:21;5.50;99.90
7654;DHT22;3869;48.406;10.774;2022-11-20T07:35:49;5.50;99.90
7654;DHT22;3869;48.406;10.774;2022-11-20T07:38:18;5.60;99.90
7654;DHT22;3869;48.406;10.774;2022-11-20T07:40:46;5.60;99.90
7654;DHT22;3869;48.406;10.774;2022-11-20T07:43:15;5.60;99.90
7654;DHT22;3869;48.406;10.774;2022-11-20T07:45:43;5.70;99.90
7654;DHT22;3869;48.406;10.774;2022-11-20T07:48:11;5.70;99.90
7654;DHT22;3869;48.406;10.774;2022-11-20T07:50:39;5.70;99.90
7654;DHT22;3869;48.406;10.774;2022-11-20T07:53:07;5.80;99.90
7654;DHT22;3869;48.406;10.774;2022-11-20T07:55:36;5.80;99.90
7654;DHT22;3869;48.406;10.774;2022-11-20T07:58:04;5.80;99.90
7654;DHT22;3869;48.406;10.774;2022-11-20T08:00:32;5.90;99.90
7654;DHT22;3869;48.406;10.774;2022-11-20T08:03:03;5.90;99.90
7654;DHT22;3869;48.406;10.774;2022-11-20T08:05:31;5.80;99.90
7654;DHT22;3869;48.406;10.774;2022-11-20T08:07:59;5.80;99.90
7654;DHT22;3869;48.406;10.774;2022-11-20T08:10:27;5.90;99.90
7654;DHT22;3869;48.406;10.774;2022-11-20T08:12:56;5.90;99.90
7654;DHT22;3869;48.406;10.774;2022-11-20T08:15:48;6.00;99.90
7654;DHT22;3869;48.406;10.774;2022-11-20T08:18:16;6.00;99.90
7654;DHT22;3869;48.406;10.774;2022-11-20T08:21:02;6.00;99.90
7654;DHT22;3869;48.406;10.774;2022-11-20T08:23:31;6.10;99.90
7654;DHT22;3869;48.406;10.774;2022-11-20T08:25:59;6.10;99.90
7654;DHT22;3869;48.406;10.774;2022-11-20T08:28:28;6.10;99.90
7654;DHT22;3869;48.406;10.774;2022-11-20T08:30:58;6.10;99.90
7654;DHT22;3869;48.406;10.774;2022-11-20T08:36:05;6.20;99.90
7654;DHT22;3869;48.406;10.774;2022-11-20T08:38:33;6.20;99.90
7654;DHT22;3869;48.406;10.774;2022-11-20T08:41:03;6.10;99.90
7654;DHT22;3869;48.406;10.774;2022-11-20T08:43:52;6.10;99.90
7654;DHT22;3869;48.406;10.774;2022-11-20T08:46:20;6.20;99.90
7654;DHT22;3869;48.406;10.774;2022-11-20T08:48:48;6.20;99.90
7654;DHT22;3869;48.406;10.774;2022-11-20T08:51:17;6.20;99.90
7654;DHT22;3869;48.406;10.774;2022-11-20T08:53:45;6.20;99.90
7654;DHT22;3869;48.406;10.774;2022-11-20T08:56:15;6.20;99.90
7654;DHT22;3869;48.406;10.774;2022-11-20T08:58:43;6.30;99.90
7654;DHT22;3869;48.406;10.774;2022-11-20T09:01:32;6.30;99.90
7654;DHT22;3869;48.406;10.774;2022-11-20T09:04:00;6.30;99.90
7654;DHT22;3869;48.406;10.774;2022-11-20T09:06:30;6.30;99.90
7654;DHT22;3869;48.406;10.774;2022-11-20T09:08:58;6.40;99.90
7654;DHT22;3869;48.406;10.774;2022-11-20T09:11:32;6.40;99.90
7654;DHT22;3869;48.406;10.774;2022-11-20T09:14:00;6.50;99.90
7654;DHT22;3869;48.406;10.774;2022-11-20T09:16:29;6.50;99.90
7654;DHT22;3869;48.406;10.774;2022-11-20T09:18:58;6.50;99.90
7654;DHT22;3869;48.406;10.774;2022-11-20T09:21:46;6.50;99.90
7654;DHT22;3869;48.406;10.774;2022-11-20T09:24:15;6.50;99.90
7654;DHT22;3869;48.406;10.774;2022-11-20T09:26:42;6.60;99.90
7654;DHT22;3869;48.406;10.774;2022-11-20T09:29:10;6.70;99.90
7654;DHT22;3869;48.406;10.774;2022-11-20T09:31:38;6.70;99.90
7654;DHT22;3869;48.406;10.774;2022-11-20T09:34:08;6.70;99.90
7654;DHT22;3869;48.406;10.774;2022-11-20T09:36:36;6.80;99.90
7654;DHT22;3869;48.406;10.774;2022-11-20T09:39:04;6.90;99.90
7654;DHT22;3869;48.406;10.774;2022-11-20T09:41:45;6.90;99.90
7654;DHT22;3869;48.406;10.774;2022-11-20T09:44:28;6.90;99.90
7654;DHT22;3869;48.406;10.774;2022-11-20T09:47:03;7.00;99.90
7654;DHT22;3869;48.406;10.774;2022-11-20T09:49:50;7.00;99.90
7654;DHT22;3869;48.406;10.774;2022-11-20T09:52:25;7.10;99.90
7654;DHT22;3869;48.406;10.774;2022-11-20T09:54:56;7.10;99.90
7654;DHT22;3869;48.406;10.774;2022-11-20T09:57:30;7.10;99.90
7654;DHT22;3869;48.406;10.774;2022-11-20T10:00:01;7.10;99.90
7654;DHT22;3869;48.406;10.774;2022-11-20T10:02:35;7.00;99.90
7654;DHT22;3869;48.406;10.774;2022-11-20T10:05:11;7.00;99.90
7654;DHT22;3869;48.406;10.774;2022-11-20T10:07:44;7.10;99.90
7654;DHT22;3869;48.406;10.774;2022-11-20T10:10:16;7.10;99.90
7654;DHT22;3869;48.406;10.774;2022-11-20T10:13:00;7.10;99.90
7654;DHT22;3869;48.406;10.774;2022-11-20T10:15:36;7.10;99.90
7654;DHT22;3869;48.406;10.774;2022-11-20T10:18:15;7.20;99.90
7654;DHT22;3869;48.406;10.774;2022-11-20T10:20:53;7.20;99.90
7654;DHT22;3869;48.406;10.774;2022-11-20T10:23:35;7.20;99.90
7654;DHT22;3869;48.406;10.774;2022-11-20T10:26:17;7.30;99.90
7654;DHT22;3869;48.406;10.774;2022-11-20T10:29:00;7.20;99.90
7654;DHT22;3869;48.406;10.774;2022-11-20T10:31:36;7.30;99.90
7654;DHT22;3869;48.406;10.774;2022-11-20T10:34:07;7.30;99.90
7654;DHT22;3869;48.406;10.774;2022-11-20T10:36:50;7.30;99.90
7654;DHT22;3869;48.406;10.774;2022-11-20T10:39:28;7.20;99.90
7654;DHT22;3869;48.406;10.774;2022-11-20T10:41:59;7.30;99.90
7654;DHT22;3869;48.406;10.774;2022-11-20T10:44:29;7.30;99.90
7654;DHT22;3869;48.406;10.774;2022-11-20T10:47:20;7.30;99.90
7654;DHT22;3869;48.406;10.774;2022-11-20T10:49:52;7.30;99.90
7654;DHT22;3869;48.406;10.774;2022-11-20T10:52:26;7.30;99.90
7654;DHT22;3869;48.406;10.774;2022-11-20T10:55:05;7.40;99.90
7654;DHT22;3869;48.406;10.774;2022-11-20T10:57:46;7.40;99.90
7654;DHT22;3869;48.406;10.774;2022-11-20T11:00:17;7.40;99.90
7654;DHT22;3869;48.406;10.774;2022-11-20T11:02:48;7.40;99.90
7654;DHT22;3869;48.406;10.774;2022-11-20T11:05:35;7.40;99.90
7654;DHT22;3869;48.406;10.774;2022-11-20T11:08:10;7.40;99.90
7654;DHT22;3869;48.406;10.774;2022-11-20T11:10:44;7.40;99.90
7654;DHT22;3869;48.406;10.774;2022-11-20T11:13:21;7.30;99.90
7654;DHT22;3869;48.406;10.774;2022-11-20T11:15:50;7.30;99.90
7654;DHT22;3869;48.406;10.774;2022-11-20T11:18:26;7.30;99.90
7654;DHT22;3869;48.406;10.774;2022-11-20T11:20:55;7.30;99.90
7654;DHT22;3869;48.406;10.774;2022-11-20T11:23:32;7.30;99.90
7654;DHT22;3869;48.406;10.774;2022-11-20T11:26:03;7.30;99.90
7654;DHT22;3869;48.406;10.774;2022-11-20T11:28:31;7.20;99.90
7654;DHT22;3869;48.406;10.774;2022-11-20T11:31:00;7.20;99.90
7654;DHT22;3869;48.406;10.774;2022-11-20T11:33:29;7.20;99.90
7654;DHT22;3869;48.406;10.774;2022-11-20T11:35:59;7.30;99.90
7654;DHT22;3869;48.406;10.774;2022-11-20T11:38:34;7.30;99.90
7654;DHT22;3869;48.406;10.774;2022-11-20T11:41:04;7.30;99.90
7654;DHT22;3869;48.406;10.774;2022-11-20T11:43:33;7.30;99.90
7654;DHT22;3869;48.406;10.774;2022-11-20T11:46:27;7.20;99.90
7654;DHT22;3869;48.406;10.774;2022-11-20T11:48:57;7.20;99.90
7654;DHT22;3869;48.406;10.774;2022-11-20T11:51:29;7.20;99.90
7654;DHT22;3869;48.406;10.774;2022-11-20T11:54:05;7.10;99.90
7654;DHT22;3869;48.406;10.774;2022-11-20T11:56:38;7.10;99.90
7654;DHT22;3869;48.406;10.774;2022-11-20T11:59:12;7.10;99.90
7654;DHT22;3869;48.406;10.774;2022-11-20T12:01:45;7.10;99.90
7654;DHT22;3869;48.406;10.774;2022-11-20T12:04:23;7.00;99.90
7654;DHT22;3869;48.406;10.774;2022-11-20T12:07:00;7.00;99.90
7654;DHT22;3869;48.406;10.774;2022-11-20T12:09:54;7.10;99.90
7654;DHT22;3869;48.406;10.774;2022-11-20T12:12:29;7.00;99.90
7654;DHT22;3869;48.406;10.774;2022-11-20T12:14:59;7.00;99.90
7654;DHT22;3869;48.406;10.774;2022-11-20T12:17:27;7.00;99.90
7654;DHT22;3869;48.406;10.774;2022-11-20T12:19:56;7.00;99.90
7654;DHT22;3869;48.406;10.774;2022-11-20T12:22:30;7.00;99.90
7654;DHT22;3869;48.406;10.774;2022-11-20T12:25:05;7.00;99.90
7654;DHT22;3869;48.406;10.774;2022-11-20T12:27:52;7.00;99.90
7654;DHT22;3869;48.406;10.774;2022-11-20T12:30:26;7.10;99.90
7654;DHT22;3869;48.406;10.774;2022-11-20T12:33:17;7.10;99.90
7654;DHT22;3869;48.406;10.774;2022-11-20T12:36:06;7.10;99.90
7654;DHT22;3869;48.406;10.774;2022-11-20T12:41:55;7.10;99.90
7654;DHT22;3869;48.406;10.774;2022-11-20T12:45:02;7.20;99.90
7654;DHT22;3869;48.406;10.774;2022-11-20T12:50:46;7.20;99.90
7654;DHT22;3869;48.406;10.774;2022-11-20T12:53:41;7.20;99.90
7654;DHT22;3869;48.406;10.774;2022-11-20T12:56:20;7.20;99.90
7654;DHT22;3869;48.406;10.774;2022-11-20T12:59:03;7.20;99.90
7654;DHT22;3869;48.406;10.774;2022-11-20T13:01:40;7.20;99.90
7654;DHT22;3869;48.406;10.774;2022-11-20T13:04:23;7.30;99.90
7654;DHT22;3869;48.406;10.774;2022-11-20T13:07:01;7.30;99.90
7654;DHT22;3869;48.406;10.774;2022-11-20T13:09:30;7.30;99.90
7654;DHT22;3869;48.406;10.774;2022-11-20T13:12:02;7.30;99.90
7654;DHT22;3869;48.406;10.774;2022-11-20T13:14:36;7.20;99.90
7654;DHT22;3869;48.406;10.774;2022-11-20T13:17:11;7.30;99.90
7654;DHT22;3869;48.406;10.774;2022-11-20T13:19:41;7.30;99.90
7654;DHT22;3869;48.406;10.774;2022-11-20T13:22:09;7.30;99.90
7654;DHT22;3869;48.406;10.774;2022-11-20T13:24:37;7.30;99.90
7654;DHT22;3869;48.406;10.774;2022-11-20T13:27:18;7.30;99.90
7654;DHT22;3869;48.406;10.774;2022-11-20T13:30:10;7.30;99.90
7654;DHT22;3869;48.406;10.774;2022-11-20T13:32:49;7.30;99.90
7654;DHT22;3869;48.406;10.774;2022-11-20T13:35:26;7.30;99.90
7654;DHT22;3869;48.406;10.774;2022-11-20T13:38:05;7.20;99.90
7654;DHT22;3869;48.406;10.774;2022-11-20T13:40:36;7.20;99.90
7654;DHT22;3869;48.406;10.774;2022-11-20T13:43:14;7.10;99.90
7654;DHT22;3869;48.406;10.774;2022-11-20T13:45:55;7.10;99.90
7654;DHT22;3869;48.406;10.774;2022-11-20T13:48:25;7.20;99.90
7654;DHT22;3869;48.406;10.774;2022-11-20T13:54:07;7.20;99.90
7654;DHT22;3869;48.406;10.774;2022-11-20T13:56:48;7.20;99.90
7654;DHT22;3869;48.406;10.774;2022-11-20T13:59:40;7.30;99.90
7654;DHT22;3869;48.406;10.774;2022-11-20T14:02:14;7.30;99.90
7654;DHT22;3869;48.406;10.774;2022-11-20T14:04:45;7.30;99.90
7654;DHT22;3869;48.406;10.774;2022-11-20T14:07:14;7.30;99.90
7654;DHT22;3869;48.406;10.774;2022-11-20T14:09:51;7.30;99.90
7654;DHT22;3869;48.406;10.774;2022-11-20T14:12:21;7.40;99.90
7654;DHT22;3869;48.406;10.774;2022-11-20T14:14:51;7.40;99.90
7654;DHT22;3869;48.406;10.774;2022-11-20T14:17:22;7.40;99.90
7654;DHT22;3869;48.406;10.774;2022-11-20T14:19:51;7.40;99.90
7654;DHT22;3869;48.406;10.774;2022-11-20T14:22:21;7.40;99.90
7654;DHT22;3869;48.406;10.774;2022-11-20T14:25:04;7.40;99.90
7654;DHT22;3869;48.406;10.774;2022-11-20T14:27:34;7.30;99.90
7654;DHT22;3869;48.406;10.774;2022-11-20T14:30:05;7.40;99.90
7654;DHT22;3869;48.406;10.774;2022-11-20T14:32:35;7.30;99.90
7654;DHT22;3869;48.406;10.774;2022-11-20T14:35:08;7.30;99.90
7654;DHT22;3869;48.406;10.774;2022-11-20T14:37:38;7.30;99.90
7654;DHT22;3869;48.406;10.774;2022-11-20T14:40:23;7.30;99.90
7654;DHT22;3869;48.406;10.774;2022-11-20T14:42:51;7.30;99.90
7654;DHT22;3869;48.406;10.774;2022-11-20T14:45:20;7.20;99.90
7654;DHT22;3869;48.406;10.774;2022-11-20T14:47:52;7.20;99.90
7654;DHT22;3869;48.406;10.774;2022-11-20T14:50:23;7.30;99.90
7654;DHT22;3869;48.406;10.774;2022-11-20T14:52:53;7.30;99.90
7654;DHT22;3869;48.406;10.774;2022-11-20T14:55:30;7.30;99.90
7654;DHT22;3869;48.406;10.774;2022-11-20T14:57:59;7.30;99.90
7654;DHT22;3869;48.406;10.774;2022-11-20T15:00:28;7.30;99.90
7654;DHT22;3869;48.406;10.774;2022-11-20T15:02:58;7.30;99.90
7654;DHT22;3869;48.406;10.774;2022-11-20T15:05:44;7.20;99.90
7654;DHT22;3869;48.406;10.774;2022-11-20T15:08:13;7.30;99.90
7654;DHT22;3869;48.406;10.774;2022-11-20T15:10:46;7.30;99.90
7654;DHT22;3869;48.406;10.774;2022-11-20T15:13:18;7.30;99.90
7654;DHT22;3869;48.406;10.774;2022-11-20T15:15:50;7.30;99.90
7654;DHT22;3869;48.406;10.774;2022-11-20T15:18:21;7.30;99.90
7654;DHT22;3869;48.406;10.774;2022-11-20T15:20:51;7.30;99.90
7654;DHT22;3869;48.406;10.774;2022-11-20T15:23:19;7.30;99.90
7654;DHT22;3869;48.406;10.774;2022-11-20T15:25:48;7.20;99.90
7654;DHT22;3869;48.406;10.774;2022-11-20T15:28:19;7.20;99.90
7654;DHT22;3869;48.406;10.774;2022-11-20T15:30:48;7.20;99.90
7654;DHT22;3869;48.406;10.774;2022-11-20T15:33:17;7.20;99.90
7654;DHT22;3869;48.406;10.774;2022-11-20T15:35:46;7.10;99.90
7654;DHT22;3869;48.406;10.774;2022-11-20T15:38:14;7.10;99.90
7654;DHT22;3869;48.406;10.774;2022-11-20T15:40:42;7.10;99.90
7654;DHT22;3869;48.406;10.774;2022-11-20T15:43:10;7.00;99.90
7654;DHT22;3869;48.406;10.774;2022-11-20T15:45:42;7.00;99.90
7654;DHT22;3869;48.406;10.774;2022-11-20T15:48:13;7.00;99.90
7654;DHT22;3869;48.406;10.774;2022-11-20T15:50:51;7.00;99.90
7654;DHT22;3869;48.406;10.774;2022-11-20T15:53:20;7.00;99.90
7654;DHT22;3869;48.406;10.774;2022-11-20T15:55:48;7.00;99.90
7654;DHT22;3869;48.406;10.774;2022-11-20T15:58:16;7.00;99.90
7654;DHT22;3869;48.406;10.774;2022-11-20T16:00:45;6.90;99.90
7654;DHT22;3869;48.406;10.774;2022-11-20T16:03:13;6.90;99.90
7654;DHT22;3869;48.406;10.774;2022-11-20T16:05:42;6.90;99.90
7654;DHT22;3869;48.406;10.774;2022-11-20T16:08:12;6.90;99.90
7654;DHT22;3869;48.406;10.774;2022-11-20T16:10:40;6.80;99.90
7654;DHT22;3869;48.406;10.774;2022-11-20T16:13:12;6.80;99.90
7654;DHT22;3869;48.406;10.774;2022-11-20T16:15:59;6.80;99.90
7654;DHT22;3869;48.406;10.774;2022-11-20T16:18:31;6.80;99.90
7654;DHT22;3869;48.406;10.774;2022-11-20T16:20:59;6.80;99.90
7654;DHT22;3869;48.406;10.774;2022-11-20T16:23:28;6.70;99.90
7654;DHT22;3869;48.406;10.774;2022-11-20T16:25:56;6.70;99.90
7654;DHT22;3869;48.406;10.774;2022-11-20T16:28:24;6.60;99.90
7654;DHT22;3869;48.406;10.774;2022-11-20T16:30:52;6.60;99.90
7654;DHT22;3869;48.406;10.774;2022-11-20T16:33:20;6.60;99.90
7654;DHT22;3869;48.406;10.774;2022-11-20T16:35:48;6.50;99.90
7654;DHT22;3869;48.406;10.774;2022-11-20T16:38:16;6.50;99.90
7654;DHT22;3869;48.406;10.774;2022-11-20T16:40:46;6.40;99.90
7654;DHT22;3869;48.406;10.774;2022-11-20T16:43:14;6.50;99.90